createdAt,value
2022-12-31T00:00:47.283Z,99835.68
2022-12-31T00:01:45.801Z,99831.57
2022-12-31T00:02:45.892Z,99831.14
2022-12-31T00:03:47.159Z,99833.21
2022-12-31T00:04:46.534Z,99838.81
2022-12-31T00:05:46.953Z,99839.95
2022-12-31T00:06:47.782Z,99842.91
2022-12-31T00:07:47.776Z,99843.23
2022-12-31T00:08:48.722Z,99843.3
2022-12-31T00:09:48.319Z,99843.46
2022-12-31T00:10:48.932Z,99845.28
2022-12-31T00:11:49.090Z,99852.09
2022-12-31T00:12:49.664Z,99851.27
2022-12-31T00:13:50.445Z,99850.79
2022-12-31T00:14:50.088Z,99847.52
2022-12-31T00:15:50.493Z,99848.02
2022-12-31T00:16:51.549Z,99847.36
2022-12-31T00:17:51.345Z,99848.58
2022-12-31T00:18:53.788Z,99851.12
2022-12-31T00:19:51.963Z,99849.5
2022-12-31T00:20:52.381Z,99852.68
2022-12-31T00:21:52.687Z,99853.08
2022-12-31T00:22:53.102Z,99856.7
2022-12-31T00:23:53.532Z,99856.05
2022-12-31T00:24:53.853Z,99853.25
2022-12-31T00:25:54.146Z,99856.03
2022-12-31T00:26:54.465Z,99857.67
2022-12-31T00:27:54.990Z,99857.1
2022-12-31T00:28:56.754Z,99857.12
2022-12-31T00:30:00.884Z,99853.41
2022-12-31T00:30:56.692Z,99855.23
2022-12-31T00:31:56.850Z,99855.39
2022-12-31T00:32:57.375Z,99852.08
2022-12-31T00:33:59.233Z,99848.74
2022-12-31T00:34:57.999Z,99848.89
2022-12-31T00:37:03.230Z,99847.15
2022-12-31T00:38:03.670Z,99851.23
2022-12-31T00:39:05.814Z,99847.16
2022-12-31T00:40:05.201Z,99851.5
2022-12-31T00:41:06.127Z,99850.5
2022-12-31T00:42:05.332Z,99852.38
2022-12-31T00:43:05.535Z,99859.12
2022-12-31T00:44:06.055Z,99857.16
2022-12-31T00:45:07.391Z,99861.58
2022-12-31T00:46:07.253Z,99856.98
2022-12-31T00:47:06.988Z,99858.59
2022-12-31T00:48:07.405Z,99854.58
2022-12-31T00:49:09.355Z,99856.12
2022-12-31T00:50:08.745Z,99861.97
2022-12-31T00:51:10.807Z,99863.28
2022-12-31T00:52:08.873Z,99860.39
2022-12-31T00:53:09.077Z,99863.5
2022-12-31T00:54:09.506Z,99859.33
2022-12-31T00:55:10.232Z,99859
2022-12-31T00:56:19.544Z,99860.16
2022-12-31T00:57:12.384Z,99858.52
2022-12-31T00:58:12.478Z,99861.26
2022-12-31T00:59:12.814Z,99858.47
2022-12-31T01:00:14.458Z,99859.06
2022-12-31T01:02:17.493Z,99865.41
2022-12-31T01:03:17.670Z,99864.92
2022-12-31T01:04:20.516Z,99865.94
2022-12-31T01:05:18.291Z,99868.62
2022-12-31T01:06:19.605Z,99867.47
2022-12-31T01:07:18.996Z,99869.09
2022-12-31T01:08:19.426Z,99867.22
2022-12-31T01:09:20.033Z,99862.96
2022-12-31T01:10:20.143Z,99864.75
2022-12-31T01:11:20.881Z,99866.45
2022-12-31T01:12:20.988Z,99863.08
2022-12-31T01:13:21.805Z,99864.98
2022-12-31T01:14:21.711Z,99868.83
2022-12-31T01:15:22.028Z,99864.66
2022-12-31T01:16:27.563Z,99859.02
2022-12-31T01:17:24.900Z,99861.11
2022-12-31T01:18:25.416Z,99868.95
2022-12-31T01:19:28.702Z,99866.59
2022-12-31T01:20:26.047Z,99864.54
2022-12-31T01:21:28.297Z,99860.95
2022-12-31T01:22:26.875Z,99855.52
2022-12-31T01:23:27.192Z,99847.64
2022-12-31T01:24:27.514Z,99851.52
2022-12-31T01:25:28.025Z,99852.06
2022-12-31T01:26:28.557Z,99848.77
2022-12-31T01:27:29.158Z,99850.16
2022-12-31T01:28:29.177Z,99847.45
2022-12-31T01:29:29.373Z,99844.33
2022-12-31T01:30:29.900Z,99842.86
2022-12-31T01:31:30.344Z,99840.82
2022-12-31T01:32:30.423Z,99841.15
2022-12-31T01:33:30.958Z,99843.02
2022-12-31T01:34:31.462Z,99845.33
2022-12-31T01:35:35.579Z,99842.47
2022-12-31T01:36:34.644Z,99843.86
2022-12-31T01:37:33.318Z,99848.12
2022-12-31T01:38:35.086Z,99846.09
2022-12-31T01:39:34.165Z,99848.47
2022-12-31T01:40:38.367Z,99852.58
2022-12-31T01:41:41.547Z,99850.02
2022-12-31T01:42:39.099Z,99848.94
2022-12-31T01:44:53.881Z,99845.08
2022-12-31T01:45:49.424Z,99847.81
2022-12-31T01:47:00.215Z,99850.36
2022-12-31T01:47:51.738Z,99853.36
2022-12-31T01:48:52.129Z,99855.34
2022-12-31T01:49:59.531Z,99852.66
2022-12-31T01:50:53.784Z,99855.27
2022-12-31T01:52:02.291Z,99852.64
2022-12-31T01:52:59.224Z,99850.01
2022-12-31T01:53:57.704Z,99854.3
2022-12-31T01:56:00.686Z,99855.95
2022-12-31T01:57:01.502Z,99856.95
2022-12-31T02:00:05.784Z,99850.94
2022-12-31T02:01:06.797Z,99848.12
2022-12-31T02:02:05.986Z,99844.1
2022-12-31T02:03:07.677Z,99844.59
2022-12-31T02:07:13.039Z,99833.11
2022-12-31T02:08:13.465Z,99834.23
2022-12-31T02:09:13.777Z,99843.8
2022-12-31T02:10:14.209Z,99847.48
2022-12-31T02:12:15.672Z,99850.44
2022-12-31T02:13:15.905Z,99847.83
2022-12-31T02:31:21.897Z,99857.34
2022-12-31T02:36:36.492Z,99856.52
2022-12-31T02:37:32.389Z,99861.68
2022-12-31T02:38:40.689Z,99857.81
2022-12-31T02:39:34.341Z,99855.95
2022-12-31T02:40:35.603Z,99853.07
2022-12-31T02:41:33.842Z,99854.97
2022-12-31T02:42:34.258Z,99851.23
2022-12-31T02:43:34.480Z,99856.08
2022-12-31T02:44:36.837Z,99854.44
2022-12-31T02:45:40.755Z,99850.67
2022-12-31T02:46:49.198Z,99851.49
2022-12-31T03:00:24.418Z,99850.97
2022-12-31T03:01:30.702Z,99855.5
2022-12-31T03:02:33.183Z,99852.02
2022-12-31T03:03:31.537Z,99854.96
2022-12-31T03:04:33.712Z,99853.59
2022-12-31T03:05:41.682Z,99853.91
2022-12-31T03:06:34.547Z,99849.16
2022-12-31T03:07:34.538Z,99851.48
2022-12-31T03:08:34.846Z,99853.38
2022-12-31T03:09:36.287Z,99852.14
2022-12-31T03:10:36.093Z,99851.69
2022-12-31T03:11:35.983Z,99849.55
2022-12-31T03:12:37.014Z,99850.36
2022-12-31T03:13:36.576Z,99846.59
2022-12-31T03:14:37.147Z,99847.08
2022-12-31T03:15:37.341Z,99848.1
2022-12-31T03:16:37.685Z,99844.48
2022-12-31T03:17:37.969Z,99843.98
2022-12-31T03:18:38.494Z,99844.3
2022-12-31T03:19:38.715Z,99842.34
2022-12-31T03:20:50.485Z,99842.52
2022-12-31T03:21:42.873Z,99836.66
2022-12-31T03:22:43.428Z,99838.28
2022-12-31T03:23:45.108Z,99833.91
2022-12-31T03:24:44.166Z,99830.72
2022-12-31T03:25:44.598Z,99833.52
2022-12-31T03:26:44.805Z,99833.67
2022-12-31T03:27:45.819Z,99836.55
2022-12-31T03:28:45.428Z,99830.19
2022-12-31T03:29:45.743Z,99832.09
2022-12-31T03:30:49.444Z,99833.14
2022-12-31T03:31:47.031Z,99827.33
2022-12-31T03:32:48.735Z,99835.45
2022-12-31T03:33:47.394Z,99841.05
2022-12-31T03:34:48.227Z,99839.88
2022-12-31T03:35:49.465Z,99834.62
2022-12-31T03:36:48.750Z,99833.75
2022-12-31T03:37:50.297Z,99833.91
2022-12-31T03:38:52.716Z,99832.41
2022-12-31T03:39:50.517Z,99832.09
2022-12-31T03:40:52.728Z,99836.59
2022-12-31T03:41:51.236Z,99837.23
2022-12-31T03:42:51.665Z,99836.73
2022-12-31T03:43:51.862Z,99836.33
2022-12-31T03:44:52.382Z,99837.05
2022-12-31T03:45:54.180Z,99835.45
2022-12-31T03:46:53.213Z,99835.45
2022-12-31T03:47:53.345Z,99838.98
2022-12-31T03:48:53.750Z,99839.72
2022-12-31T03:49:54.034Z,99842.69
2022-12-31T03:50:54.391Z,99834.23
2022-12-31T03:51:54.895Z,99830.03
2022-12-31T03:52:55.298Z,99835.03
2022-12-31T03:53:55.619Z,99829.69
2022-12-31T03:54:55.944Z,99832.45
2022-12-31T03:55:56.151Z,99832.67
2022-12-31T03:57:00.078Z,99826.59
2022-12-31T03:57:58.105Z,99828.98
2022-12-31T03:58:58.425Z,99829.33
2022-12-31T03:59:58.735Z,99828.52
2022-12-31T04:00:59.303Z,99826.48
2022-12-31T04:01:59.576Z,99825.97
2022-12-31T04:02:59.865Z,99824.91
2022-12-31T04:04:00.504Z,99821.7
2022-12-31T04:05:00.423Z,99820.39
2022-12-31T04:06:00.933Z,99822.2
2022-12-31T04:07:01.435Z,99818.7
2022-12-31T04:08:01.655Z,99819.51
2022-12-31T04:09:01.853Z,99812.84
2022-12-31T04:10:03.198Z,99810.03
2022-12-31T04:11:02.694Z,99807.52
2022-12-31T04:12:03.028Z,99806.13
2022-12-31T04:13:03.429Z,99802.2
2022-12-31T04:14:03.650Z,99802.87
2022-12-31T04:15:05.199Z,99802.17
2022-12-31T04:16:04.922Z,99807.32
2022-12-31T04:17:04.794Z,99806.35
2022-12-31T04:18:05.618Z,99803.32
2022-12-31T04:19:05.417Z,99799.04
2022-12-31T04:20:06.863Z,99798.4
2022-12-31T04:21:06.445Z,99800.53
2022-12-31T04:22:06.629Z,99799.81
2022-12-31T04:23:06.978Z,99798.18
2022-12-31T04:24:08.334Z,99797.34
2022-12-31T04:25:08.733Z,99795.92
2022-12-31T04:26:08.029Z,99794.78
2022-12-31T04:27:08.436Z,99797.52
2022-12-31T04:28:08.856Z,99790.3
2022-12-31T04:29:09.178Z,99785.75
2022-12-31T04:30:11.233Z,99783.05
2022-12-31T04:31:09.698Z,99775.58
2022-12-31T04:32:10.884Z,99778.86
2022-12-31T04:33:10.835Z,99776.56
2022-12-31T04:34:10.927Z,99774.93
2022-12-31T04:35:11.699Z,99767.44
2022-12-31T04:36:11.867Z,99767.02
2022-12-31T04:37:11.871Z,99757.27
2022-12-31T04:38:12.205Z,99754.56
2022-12-31T04:39:12.707Z,99752.92
2022-12-31T04:40:13.227Z,99754.8
2022-12-31T04:41:13.246Z,99756.36
2022-12-31T04:42:13.769Z,99748.88
2022-12-31T04:43:13.965Z,99747.42
2022-12-31T04:44:14.494Z,99746.2
2022-12-31T04:45:15.017Z,99742.47
2022-12-31T04:46:15.871Z,99746.39
2022-12-31T04:47:20.223Z,99740.91
2022-12-31T04:48:15.924Z,99735.22
2022-12-31T04:49:16.768Z,99731.45
2022-12-31T04:50:16.775Z,99735.49
2022-12-31T04:51:17.092Z,99729.48
2022-12-31T04:52:17.416Z,99721.28
2022-12-31T04:53:17.725Z,99719.2
2022-12-31T04:54:18.149Z,99718.28
2022-12-31T04:55:18.365Z,99715.91
2022-12-31T04:56:19.073Z,99718.86
2022-12-31T04:57:19.185Z,99714.11
2022-12-31T04:58:19.489Z,99714.51
2022-12-31T04:59:19.921Z,99709.1
2022-12-31T05:00:20.539Z,99708.45
2022-12-31T05:01:21.039Z,99705.98
2022-12-31T05:02:21.076Z,99705.66
2022-12-31T05:03:23.468Z,99705.46
2022-12-31T05:04:21.890Z,99707.7
2022-12-31T05:05:22.108Z,99710.66
2022-12-31T05:06:23.444Z,99717.22
2022-12-31T05:07:22.611Z,99718.62
2022-12-31T05:08:22.943Z,99720.01
2022-12-31T05:09:23.463Z,99715.05
2022-12-31T05:10:23.776Z,99710.41
2022-12-31T05:11:24.096Z,99710.1
2022-12-31T05:12:24.407Z,99707.38
2022-12-31T05:13:31.057Z,99706.3
2022-12-31T05:14:25.934Z,99703.11
2022-12-31T05:15:25.937Z,99702.71
2022-12-31T05:16:26.272Z,99696.27
2022-12-31T05:17:26.478Z,99697.81
2022-12-31T05:18:27.163Z,99696.5
2022-12-31T05:19:27.307Z,99698.17
2022-12-31T05:20:27.626Z,99700.3
2022-12-31T05:21:27.850Z,99698.76
2022-12-31T05:22:28.356Z,99706.12
2022-12-31T05:23:29.388Z,99701.62
2022-12-31T05:24:29.400Z,99700.95
2022-12-31T05:25:29.469Z,99694.94
2022-12-31T05:26:29.820Z,99689.78
2022-12-31T05:27:30.336Z,99686.42
2022-12-31T05:28:30.446Z,99679.84
2022-12-31T05:29:30.979Z,99675.73
2022-12-31T05:30:31.106Z,99672.35
2022-12-31T05:31:31.597Z,99667.84
2022-12-31T05:32:32.227Z,99660.16
2022-12-31T05:33:32.105Z,99657
2022-12-31T05:34:32.702Z,99650.53
2022-12-31T05:35:32.949Z,99653.58
2022-12-31T05:36:33.405Z,99658.9
2022-12-31T05:37:34.176Z,99655.63
2022-12-31T05:38:33.900Z,99653.5
2022-12-31T05:39:35.142Z,99653.77
2022-12-31T05:40:34.932Z,99660.66
2022-12-31T05:41:35.039Z,99663.69
2022-12-31T05:42:35.656Z,99655.06
2022-12-31T05:43:35.655Z,99656.34
2022-12-31T05:44:36.191Z,99659.5
2022-12-31T05:45:36.447Z,99654.16
2022-12-31T05:46:36.801Z,99650.73
2022-12-31T05:47:37.227Z,99649.67
2022-12-31T05:48:37.432Z,99645.22
2022-12-31T05:49:37.866Z,99646.05
2022-12-31T05:50:38.263Z,99640.62
2022-12-31T05:51:38.795Z,99644.64
2022-12-31T05:52:39.093Z,99643.65
2022-12-31T05:53:39.217Z,99637.73
2022-12-31T05:54:39.519Z,99633.98
2022-12-31T05:55:40.145Z,99635.11
2022-12-31T05:56:40.572Z,99626.69
2022-12-31T05:57:40.990Z,99618.78
2022-12-31T05:58:41.095Z,99621.48
2022-12-31T05:59:41.297Z,99623.39
2022-12-31T06:00:42.431Z,99618.55
2022-12-31T06:01:42.155Z,99620.78
2022-12-31T06:02:42.578Z,99615.75
2022-12-31T06:03:42.903Z,99619.13
2022-12-31T06:04:43.390Z,99617.05
2022-12-31T06:05:43.811Z,99608.03
2022-12-31T06:06:43.910Z,99596.47
2022-12-31T06:07:44.217Z,99579.98
2022-12-31T06:08:44.556Z,99584.67
2022-12-31T06:09:44.838Z,99594.75
2022-12-31T06:10:45.272Z,99598.36
2022-12-31T06:11:45.864Z,99599.11
2022-12-31T06:12:46.191Z,99593.28
2022-12-31T06:13:46.416Z,99589.97
2022-12-31T06:14:46.511Z,99586.53
2022-12-31T06:15:47.182Z,99586.05
2022-12-31T06:16:47.257Z,99581.7
2022-12-31T06:17:47.760Z,99578.34
2022-12-31T06:18:48.303Z,99573.68
2022-12-31T06:19:48.816Z,99572.94
2022-12-31T06:20:48.819Z,99572.54
2022-12-31T06:21:49.147Z,99576.88
2022-12-31T06:22:49.641Z,99581.3
2022-12-31T06:23:50.159Z,99582.38
2022-12-31T06:24:50.066Z,99579.92
2022-12-31T06:25:50.685Z,99581.31
2022-12-31T06:26:50.798Z,99580.41
2022-12-31T06:27:51.228Z,99579.44
2022-12-31T06:28:51.742Z,99578.04
2022-12-31T06:29:51.937Z,99577.38
2022-12-31T06:31:02.559Z,99577.65
2022-12-31T06:31:55.141Z,99577.98
2022-12-31T06:32:55.969Z,99581.5
2022-12-31T06:33:55.971Z,99582.48
2022-12-31T06:34:56.179Z,99588.94
2022-12-31T06:35:57.839Z,99585.01
2022-12-31T06:36:56.810Z,99583.05
2022-12-31T06:37:57.316Z,99588.8
2022-12-31T06:38:57.628Z,99587.33
2022-12-31T06:39:58.058Z,99590.09
2022-12-31T06:40:58.256Z,99587.97
2022-12-31T06:41:58.781Z,99590.42
2022-12-31T06:43:00.279Z,99602.09
2022-12-31T06:43:59.412Z,99597.58
2022-12-31T06:44:59.916Z,99595.36
2022-12-31T06:46:04.574Z,99599.78
2022-12-31T06:47:02.191Z,99603.39
2022-12-31T06:48:02.300Z,99600.53
2022-12-31T06:49:02.825Z,99603.73
2022-12-31T06:50:03.531Z,99604.62
2022-12-31T06:51:05.290Z,99609.55
2022-12-31T06:52:04.378Z,99606.03
2022-12-31T06:53:04.488Z,99602.68
2022-12-31T06:54:04.506Z,99594.2
2022-12-31T06:55:06.116Z,99602.34
2022-12-31T06:56:07.577Z,99598.58
2022-12-31T06:57:06.248Z,99597.28
2022-12-31T06:58:06.462Z,99598.34
2022-12-31T06:59:06.893Z,99592.6
2022-12-31T07:00:07.699Z,99597.37
2022-12-31T07:20:05.488Z,99587.44
2022-12-31T07:20:58.617Z,99583.24
2022-12-31T07:21:59.762Z,99576.61
2022-12-31T07:22:59.253Z,99569.55
2022-12-31T07:23:59.558Z,99559.54
2022-12-31T07:24:59.991Z,99551.27
2022-12-31T07:39:46.677Z,99550.53
2022-12-31T07:46:59.203Z,99536.8
2022-12-31T07:47:46.993Z,99544.3
2022-12-31T07:48:47.547Z,99538.22
2022-12-31T07:49:47.864Z,99535.08
2022-12-31T07:50:48.163Z,99535
2022-12-31T07:51:48.579Z,99534.83
2022-12-31T07:52:48.964Z,99529.92
2022-12-31T07:53:48.698Z,99519.48
2022-12-31T07:54:49.113Z,99523.34
2022-12-31T07:56:00.814Z,99524.01
2022-12-31T07:56:53.111Z,99525.97
2022-12-31T07:58:03.529Z,99523.68
2022-12-31T08:01:09.788Z,99509.05
2022-12-31T08:12:45.562Z,99483.5
2022-12-31T08:13:45.146Z,99481.36
2022-12-31T08:14:47.121Z,99475.95
2022-12-31T08:15:45.369Z,99475.12
2022-12-31T08:16:46.320Z,99486.03
2022-12-31T08:17:46.420Z,99493.25
2022-12-31T08:18:46.203Z,99488.66
2022-12-31T08:19:46.827Z,99484.8
2022-12-31T08:41:48.221Z,99448.77
2022-12-31T08:45:57.995Z,99443.08
2022-12-31T08:49:04.901Z,99441.43
2022-12-31T08:50:05.762Z,99446.66
2022-12-31T08:51:05.943Z,99449.68
2022-12-31T08:53:09.896Z,99450.66
2022-12-31T08:54:13.064Z,99448.42
2022-12-31T09:00:21.403Z,99437.94
2022-12-31T09:01:25.125Z,99433.5
2022-12-31T09:06:36.393Z,99415.22
2022-12-31T09:07:45.606Z,99422.38
2022-12-31T09:17:07.576Z,99386.01
2022-12-31T09:18:00.727Z,99384.25
2022-12-31T09:19:00.624Z,99372.47
2022-12-31T09:20:01.451Z,99365.79
2022-12-31T09:21:01.662Z,99367.52
2022-12-31T09:22:02.084Z,99363.47
2022-12-31T09:23:02.505Z,99361.15
2022-12-31T09:24:08.955Z,99361.08
2022-12-31T09:25:07.937Z,99358.34
2022-12-31T09:30:26.408Z,99335.84
2022-12-31T09:34:47.522Z,99339.42
2022-12-31T09:36:48.529Z,99344.91
2022-12-31T09:39:49.489Z,99347.19
2022-12-31T11:58:57.420Z,99257.81
2022-12-31T11:59:59.856Z,99261.71
2022-12-31T12:03:07.696Z,99255.96
2022-12-31T12:04:06.485Z,99262.72
2022-12-31T12:05:11.007Z,99264.02
2022-12-31T12:06:13.196Z,99259.62
2022-12-31T12:07:15.584Z,99258.49
2022-12-31T12:08:13.922Z,99248.75
2022-12-31T12:10:35.195Z,99254.52
2022-12-31T12:12:20.196Z,99252.58
2022-12-31T12:15:33.939Z,99249.61
2022-12-31T12:16:31.746Z,99243.73
2022-12-31T12:17:34.166Z,99243.25
2022-12-31T12:20:40.834Z,99239
2022-12-31T12:25:01.664Z,99251.47
2022-12-31T12:25:49.056Z,99248.84
2022-12-31T12:26:49.570Z,99249.06
2022-12-31T12:27:49.991Z,99253.44
2022-12-31T12:28:50.171Z,99251.56
2022-12-31T12:29:50.435Z,99256.56
2022-12-31T12:31:00.503Z,99259.36
2022-12-31T12:32:01.593Z,99262.04
2022-12-31T12:32:59.555Z,99256.98
2022-12-31T12:33:56.996Z,99256.86
2022-12-31T12:34:57.412Z,99254.3
2022-12-31T12:37:02.443Z,99259.38
2022-12-31T12:39:07.059Z,99265.09
2022-12-31T12:40:08.261Z,99254.64
2022-12-31T12:44:16.111Z,99252.83
2022-12-31T12:45:21.024Z,99249.57
2022-12-31T12:46:28.029Z,99249.33
2022-12-31T12:47:20.624Z,99252.16
2022-12-31T13:28:25.814Z,99247.09
2022-12-31T13:29:27.657Z,99252.83
2022-12-31T13:30:38.225Z,99252.45
2022-12-31T13:31:36.775Z,99258.53
2022-12-31T13:33:37.285Z,99258.73
2022-12-31T13:34:40.497Z,99261.52
2022-12-31T13:36:42.940Z,99261.38
2022-12-31T13:37:42.676Z,99260.98
2022-12-31T13:38:50.252Z,99261.39
2022-12-31T13:39:45.097Z,99258.16
2022-12-31T13:45:02.752Z,99251.52
2022-12-31T13:48:12.595Z,99238.31
2022-12-31T13:51:24.355Z,99235.36
2022-12-31T13:59:48.647Z,99239.21
2022-12-31T14:00:48.127Z,99243.22
2022-12-31T14:08:08.071Z,99241.08
2022-12-31T14:09:14.521Z,99239.87
2022-12-31T14:10:16.686Z,99230.83
2022-12-31T14:15:37.801Z,99231.06
2022-12-31T14:23:55.985Z,99224.22
2022-12-31T14:24:50.051Z,99227.05
2022-12-31T14:27:54.985Z,99229.59
2022-12-31T14:50:58.920Z,99243.76
2022-12-31T14:54:01.740Z,99245.38
2022-12-31T14:56:07.653Z,99245.72
2022-12-31T15:01:24.917Z,99232.4
2022-12-31T15:05:38.432Z,99212.56
2022-12-31T15:23:25.333Z,99209.28
2022-12-31T15:24:22.797Z,99203.42
2022-12-31T15:28:34.607Z,99214.5
2022-12-31T15:31:36.422Z,99213.09
2022-12-31T15:32:42.982Z,99206.28
2022-12-31T15:34:37.308Z,99204.84
2022-12-31T15:37:43.977Z,99203.69
2022-12-31T15:38:45.273Z,99205.35
2022-12-31T15:39:44.832Z,99204.56
2022-12-31T15:40:50.141Z,99203.38
2022-12-31T15:42:35.549Z,99201.47
2022-12-31T15:45:57.915Z,99207.89
2022-12-31T15:48:02.076Z,99208.61
2022-12-31T15:51:13.126Z,99214.48
2022-12-31T15:54:25.447Z,99210.41
2022-12-31T15:57:33.767Z,99206.2
2022-12-31T15:58:33.475Z,99200.17
2022-12-31T15:59:31.938Z,99199.41
2022-12-31T16:02:35.661Z,99197.23
2022-12-31T16:03:35.082Z,99195.78
2022-12-31T16:04:35.354Z,99196.73
2022-12-31T16:05:35.867Z,99189.73
2022-12-31T16:06:40.065Z,99196.43
2022-12-31T16:07:39.256Z,99189.3
2022-12-31T16:08:38.859Z,99188.28
2022-12-31T16:09:38.449Z,99188.38
2022-12-31T16:10:38.976Z,99184.98
2022-12-31T16:11:40.821Z,99180.54
2022-12-31T16:12:44.619Z,99177.41
2022-12-31T16:18:57.564Z,99185.27
2022-12-31T16:19:58.588Z,99185.58
2022-12-31T16:20:57.480Z,99188.07
2022-12-31T16:22:01.678Z,99193.67
2022-12-31T16:23:01.062Z,99191.62
2022-12-31T16:24:03.226Z,99194.06
2022-12-31T16:25:29.576Z,99198.17
2022-12-31T16:26:04.362Z,99195.73
2022-12-31T16:31:19.292Z,99187.19
2022-12-31T16:32:19.120Z,99189.3
2022-12-31T16:33:17.321Z,99191.2
2022-12-31T16:34:20.502Z,99187.34
2022-12-31T16:35:30.237Z,99189.33
2022-12-31T16:36:23.898Z,99185.45
2022-12-31T16:37:24.101Z,99185.41
2022-12-31T16:38:30.961Z,99179.39
2022-12-31T16:39:34.877Z,99177.4
2022-12-31T16:40:32.524Z,99178.04
2022-12-31T16:41:42.772Z,99181.78
2022-12-31T16:42:44.151Z,99178.69
2022-12-31T16:43:41.748Z,99182.09
2022-12-31T16:44:39.699Z,99175.67
2022-12-31T16:45:39.816Z,99172.51
2022-12-31T16:46:41.212Z,99176.31
2022-12-31T16:47:41.884Z,99182.28
2022-12-31T16:48:45.363Z,99184.22
2022-12-31T16:49:43.518Z,99183.53
2022-12-31T16:50:50.821Z,99190.97
2022-12-31T16:51:48.765Z,99182.89
2022-12-31T16:52:52.861Z,99178.05
2022-12-31T16:53:51.025Z,99176.52
2022-12-31T16:54:51.345Z,99173.58
2022-12-31T16:56:54.130Z,99179.66
2022-12-31T16:59:02.597Z,99182.77
2022-12-31T17:00:06.728Z,99179.69
2022-12-31T17:02:16.304Z,99173.76
2022-12-31T17:06:19.485Z,99177.81
2022-12-31T17:12:28.955Z,99180.88
2022-12-31T17:13:32.619Z,99177.52
2022-12-31T17:14:29.972Z,99169.82
2022-12-31T17:16:30.866Z,99167.48
2022-12-31T17:17:34.726Z,99168.09
2022-12-31T17:18:37.992Z,99167.83
2022-12-31T17:19:47.728Z,99164.8
2022-12-31T17:20:40.268Z,99161.22
2022-12-31T17:21:47.531Z,99153.97
2022-12-31T17:22:45.191Z,99145.73
2022-12-31T17:23:54.189Z,99146.12
2022-12-31T17:24:49.096Z,99141.77
2022-12-31T17:25:47.147Z,99143.12
2022-12-31T17:26:47.457Z,99143.14
2022-12-31T17:27:58.111Z,99141
2022-12-31T17:28:52.419Z,99138.72
2022-12-31T17:29:50.958Z,99135.09
2022-12-31T17:30:51.400Z,99138.69
2022-12-31T17:35:00.416Z,99129.53
2022-12-31T17:37:19.064Z,99137.83
2022-12-31T17:39:23.907Z,99138.74
2022-12-31T17:42:22.497Z,99127.52
2022-12-31T17:43:15.420Z,99119.74
2022-12-31T17:44:22.290Z,99116.17
2022-12-31T17:45:21.679Z,99118.31
2022-12-31T17:46:20.973Z,99116.78
2022-12-31T17:47:20.672Z,99112.34
2022-12-31T17:48:23.839Z,99112.64
2022-12-31T17:49:30.101Z,99106.1
2022-12-31T17:50:27.256Z,99110.09
2022-12-31T17:51:24.901Z,99116.82
2022-12-31T17:52:25.513Z,99128.43
2022-12-31T17:53:25.632Z,99128.62
2022-12-31T17:54:25.827Z,99134.14
2022-12-31T17:55:27.168Z,99132.26
2022-12-31T17:56:27.078Z,99128.48
2022-12-31T17:57:28.419Z,99130.08
2022-12-31T17:58:37.945Z,99127.88
2022-12-31T17:59:32.740Z,99125.38
2022-12-31T18:00:31.022Z,99121.56
2022-12-31T18:01:31.269Z,99129.22
2022-12-31T18:02:31.837Z,99117.45
2022-12-31T18:03:32.030Z,99121.66
2022-12-31T18:04:32.354Z,99119.86
2022-12-31T18:05:32.665Z,99120.12
2022-12-31T18:06:33.073Z,99117.05
2022-12-31T18:07:33.501Z,99113.02
2022-12-31T18:08:33.717Z,99107.83
2022-12-31T18:09:34.428Z,99110.39
2022-12-31T18:10:37.005Z,99108.84
2022-12-31T18:11:36.812Z,99105.75
2022-12-31T18:12:35.896Z,99097.72
2022-12-31T18:13:35.788Z,99093.66
2022-12-31T18:14:36.655Z,99089.58
2022-12-31T18:15:36.419Z,99085.8
2022-12-31T18:16:36.789Z,99084.2
2022-12-31T18:17:36.947Z,99083.88
2022-12-31T18:18:37.360Z,99083.87
2022-12-31T18:20:03.500Z,99087
2022-12-31T18:20:40.041Z,99083.45
2022-12-31T18:21:41.996Z,99085.14
2022-12-31T18:22:43.224Z,99080.39
2022-12-31T18:23:44.152Z,99084.2
2022-12-31T18:24:42.117Z,99077.92
2022-12-31T18:26:42.456Z,99077.96
2022-12-31T18:27:42.850Z,99082.24
2022-12-31T18:28:43.981Z,99079.02
2022-12-31T18:29:43.686Z,99081
2022-12-31T18:30:45.635Z,99079.09
2022-12-31T18:32:46.687Z,99082.19
2022-12-31T18:33:46.984Z,99080.38
2022-12-31T18:34:47.298Z,99080.35
2022-12-31T18:36:08.348Z,99081.09
2022-12-31T18:36:49.469Z,99081.69
2022-12-31T18:37:49.979Z,99085.32
2022-12-31T18:38:51.831Z,99075.8
2022-12-31T18:39:50.777Z,99077.15
2022-12-31T18:41:52.244Z,99077.69
2022-12-31T18:42:59.684Z,99079.8
2022-12-31T18:43:55.572Z,99079.23
2022-12-31T18:44:55.646Z,99081.27
2022-12-31T18:45:56.002Z,99078.34
2022-12-31T18:46:56.594Z,99072.39
2022-12-31T18:47:56.595Z,99068.94
2022-12-31T18:48:57.011Z,99066.22
2022-12-31T18:49:57.323Z,99065.53
2022-12-31T18:50:57.636Z,99059.52
2022-12-31T18:51:58.049Z,99064.14
2022-12-31T18:52:58.583Z,99063.46
2022-12-31T18:53:59.300Z,99066.09
2022-12-31T18:54:59.203Z,99062.17
2022-12-31T18:55:59.519Z,99063.95
2022-12-31T18:56:59.933Z,99061.49
2022-12-31T18:58:00.237Z,99061.2
2022-12-31T18:59:00.659Z,99055.88
2022-12-31T19:00:01.087Z,99056.06
2022-12-31T19:01:01.556Z,99053.77
2022-12-31T19:02:02.200Z,99051.2
2022-12-31T19:03:02.474Z,99051.77
2022-12-31T19:04:05.095Z,99049.69
2022-12-31T19:05:02.856Z,99051.44
2022-12-31T19:06:03.160Z,99048.05
2022-12-31T19:07:03.721Z,99049.59
2022-12-31T19:08:04.620Z,99046.11
2022-12-31T19:09:13.215Z,99049.63
2022-12-31T19:10:06.990Z,99051.42
2022-12-31T19:11:06.372Z,99052.82
2022-12-31T19:12:07.099Z,99051.7
2022-12-31T19:13:09.873Z,99051.59
2022-12-31T19:16:11.695Z,99050.45
2022-12-31T19:17:11.937Z,99053.64
2022-12-31T19:18:12.270Z,99046.81
2022-12-31T19:19:13.040Z,99048.39
2022-12-31T19:20:13.197Z,99047.95
2022-12-31T19:22:15.965Z,99049.48
2022-12-31T19:23:19.162Z,99051.42
2022-12-31T19:25:28.592Z,99050.05
2022-12-31T19:26:22.442Z,99051.12
2022-12-31T19:27:21.435Z,99052.41
2022-12-31T19:28:24.417Z,99053.12
2022-12-31T19:29:27.724Z,99056.17
2022-12-31T19:30:28.312Z,99053.25
2022-12-31T19:31:25.878Z,99057.91
2022-12-31T19:32:26.168Z,99058.84
2022-12-31T19:33:26.591Z,99056.42
2022-12-31T19:34:26.914Z,99056.58
2022-12-31T19:35:27.730Z,99056.84
2022-12-31T19:36:28.037Z,99060.53
2022-12-31T19:37:28.149Z,99056.45
2022-12-31T19:38:28.685Z,99053.81
2022-12-31T19:39:28.784Z,99050.59
2022-12-31T19:40:30.834Z,99047.09
2022-12-31T19:41:29.711Z,99050.25
2022-12-31T19:42:29.940Z,99043.7
2022-12-31T19:43:30.233Z,99044.81
2022-12-31T19:44:30.672Z,99041.86
2022-12-31T19:45:31.077Z,99038.19
2022-12-31T19:46:31.483Z,99041.59
2022-12-31T19:47:31.699Z,99037.63
2022-12-31T19:48:33.119Z,99036.34
2022-12-31T19:49:32.426Z,99038.25
2022-12-31T19:50:32.851Z,99035.02
2022-12-31T19:51:33.372Z,99035.26
2022-12-31T19:52:33.582Z,99033
2022-12-31T19:53:33.880Z,99037.24
2022-12-31T19:54:34.110Z,99032.22
2022-12-31T19:55:34.510Z,99031.22
2022-12-31T19:56:35.356Z,99027.01
2022-12-31T19:57:35.559Z,99030.54
2022-12-31T19:58:35.866Z,99025.95
2022-12-31T19:59:36.177Z,99025.95
2022-12-31T20:00:36.501Z,99023.95
2022-12-31T20:01:37.213Z,99018.37
2022-12-31T20:02:37.699Z,99016.88
2022-12-31T20:03:37.583Z,99014.41
2022-12-31T20:04:37.950Z,99013.67
2022-12-31T20:05:38.264Z,99016.16